sensor_id;sensor_type;location;lat;lon;timestamp;P1;durP1;ratioP1;P2;durP2;ratioP2
27833;SDS011;15200;50.570;7.244;2023-01-31T00:01:16;20.70;;;3.70;;
27833;SDS011;15200;50.570;7.244;2023-01-31T00:03:43;16.30;;;4.37;;
27833;SDS011;15200;50.570;7.244;2023-01-31T00:06:20;16.67;;;2.57;;
27833;SDS011;15200;50.570;7.244;2023-01-31T00:08:40;15.57;;;2.73;;
27833;SDS011;15200;50.570;7.244;2023-01-31T00:11:07;15.77;;;3.23;;
27833;SDS011;15200;50.570;7.244;2023-01-31T00:13:35;21.27;;;4.30;;
27833;SDS011;15200;50.570;7.244;2023-01-31T00:16:02;12.17;;;3.67;;
27833;SDS011;15200;50.570;7.244;2023-01-31T00:18:30;11.50;;;2.73;;
27833;SDS011;15200;50.570;7.244;2023-01-31T00:21:00;15.60;;;2.97;;
27833;SDS011;15200;50.570;7.244;2023-01-31T00:23:27;13.93;;;3.47;;
27833;SDS011;15200;50.570;7.244;2023-01-31T00:25:54;17.20;;;3.90;;
27833;SDS011;15200;50.570;7.244;2023-01-31T00:28:21;20.55;;;3.33;;
27833;SDS011;15200;50.570;7.244;2023-01-31T00:30:48;20.67;;;4.03;;
27833;SDS011;15200;50.570;7.244;2023-01-31T00:33:16;15.37;;;2.87;;
27833;SDS011;15200;50.570;7.244;2023-01-31T00:35:43;20.63;;;4.07;;
27833;SDS011;15200;50.570;7.244;2023-01-31T00:38:10;10.43;;;2.90;;
27833;SDS011;15200;50.570;7.244;2023-01-31T00:40:38;13.08;;;2.95;;
27833;SDS011;15200;50.570;7.244;2023-01-31T00:43:05;19.92;;;4.42;;
27833;SDS011;15200;50.570;7.244;2023-01-31T00:45:32;20.00;;;3.75;;
27833;SDS011;15200;50.570;7.244;2023-01-31T00:48:00;15.63;;;3.60;;
27833;SDS011;15200;50.570;7.244;2023-01-31T00:50:27;13.17;;;2.73;;
27833;SDS011;15200;50.570;7.244;2023-01-31T00:52:54;15.93;;;3.00;;
27833;SDS011;15200;50.570;7.244;2023-01-31T00:58:08;15.35;;;2.62;;
27833;SDS011;15200;50.570;7.244;2023-01-31T01:00:35;11.77;;;2.50;;
27833;SDS011;15200;50.570;7.244;2023-01-31T01:03:03;14.30;;;2.98;;
27833;SDS011;15200;50.570;7.244;2023-01-31T01:05:30;10.98;;;2.80;;
27833;SDS011;15200;50.570;7.244;2023-01-31T01:07:57;14.43;;;3.27;;
27833;SDS011;15200;50.570;7.244;2023-01-31T01:10:25;15.32;;;3.35;;
27833;SDS011;15200;50.570;7.244;2023-01-31T01:12:52;14.60;;;3.10;;
27833;SDS011;15200;50.570;7.244;2023-01-31T01:15:19;17.40;;;3.00;;
27833;SDS011;15200;50.570;7.244;2023-01-31T01:17:46;15.50;;;3.13;;
27833;SDS011;15200;50.570;7.244;2023-01-31T01:20:14;11.03;;;3.10;;
27833;SDS011;15200;50.570;7.244;2023-01-31T01:22:41;15.38;;;3.17;;
27833;SDS011;15200;50.570;7.244;2023-01-31T01:25:09;10.38;;;2.17;;
27833;SDS011;15200;50.570;7.244;2023-01-31T01:27:36;12.00;;;2.47;;
27833;SDS011;15200;50.570;7.244;2023-01-31T01:30:03;12.77;;;3.20;;
27833;SDS011;15200;50.570;7.244;2023-01-31T01:32:31;12.37;;;3.17;;
27833;SDS011;15200;50.570;7.244;2023-01-31T01:34:58;17.20;;;3.20;;
27833;SDS011;15200;50.570;7.244;2023-01-31T01:37:26;19.60;;;3.50;;
27833;SDS011;15200;50.570;7.244;2023-01-31T01:39:56;13.10;;;3.10;;
27833;SDS011;15200;50.570;7.244;2023-01-31T01:42:24;17.27;;;3.57;;
27833;SDS011;15200;50.570;7.244;2023-01-31T01:47:39;13.57;;;2.80;;
27833;SDS011;15200;50.570;7.244;2023-01-31T01:50:24;14.87;;;3.43;;
27833;SDS011;15200;50.570;7.244;2023-01-31T01:52:57;14.77;;;2.90;;
27833;SDS011;15200;50.570;7.244;2023-01-31T01:55:25;18.63;;;3.17;;
27833;SDS011;15200;50.570;7.244;2023-01-31T01:57:53;10.80;;;2.70;;
27833;SDS011;15200;50.570;7.244;2023-01-31T02:00:22;14.83;;;3.43;;
27833;SDS011;15200;50.570;7.244;2023-01-31T02:02:51;13.73;;;3.00;;
27833;SDS011;15200;50.570;7.244;2023-01-31T02:05:20;9.77;;;2.40;;
27833;SDS011;15200;50.570;7.244;2023-01-31T02:07:47;10.03;;;2.57;;
27833;SDS011;15200;50.570;7.244;2023-01-31T02:10:20;11.90;;;3.03;;
27833;SDS011;15200;50.570;7.244;2023-01-31T02:12:44;14.53;;;2.27;;
27833;SDS011;15200;50.570;7.244;2023-01-31T02:15:12;10.07;;;3.17;;
27833;SDS011;15200;50.570;7.244;2023-01-31T02:17:39;11.00;;;2.73;;
27833;SDS011;15200;50.570;7.244;2023-01-31T02:20:11;15.90;;;2.80;;
27833;SDS011;15200;50.570;7.244;2023-01-31T02:22:40;14.30;;;2.67;;
27833;SDS011;15200;50.570;7.244;2023-01-31T02:27:58;18.30;;;2.83;;
27833;SDS011;15200;50.570;7.244;2023-01-31T02:33:02;17.97;;;3.17;;
27833;SDS011;15200;50.570;7.244;2023-01-31T02:35:35;11.73;;;2.30;;
27833;SDS011;15200;50.570;7.244;2023-01-31T02:38:14;11.93;;;2.70;;
27833;SDS011;15200;50.570;7.244;2023-01-31T02:40:47;9.53;;;2.40;;
27833;SDS011;15200;50.570;7.244;2023-01-31T02:43:29;14.23;;;2.33;;
27833;SDS011;15200;50.570;7.244;2023-01-31T02:46:06;9.17;;;2.17;;
27833;SDS011;15200;50.570;7.244;2023-01-31T02:51:20;14.83;;;2.87;;
27833;SDS011;15200;50.570;7.244;2023-01-31T02:56:38;9.27;;;2.40;;
27833;SDS011;15200;50.570;7.244;2023-01-31T02:59:14;11.23;;;2.37;;
27833;SDS011;15200;50.570;7.244;2023-01-31T03:01:43;8.13;;;2.10;;
27833;SDS011;15200;50.570;7.244;2023-01-31T03:04:11;11.60;;;2.40;;
27833;SDS011;15200;50.570;7.244;2023-01-31T03:06:49;11.60;;;2.57;;
27833;SDS011;15200;50.570;7.244;2023-01-31T03:09:19;8.53;;;1.90;;
27833;SDS011;15200;50.570;7.244;2023-01-31T03:11:57;11.50;;;2.57;;
27833;SDS011;15200;50.570;7.244;2023-01-31T03:16:51;11.93;;;2.90;;
27833;SDS011;15200;50.570;7.244;2023-01-31T03:22:24;12.63;;;1.90;;
27833;SDS011;15200;50.570;7.244;2023-01-31T03:24:52;14.07;;;2.40;;
27833;SDS011;15200;50.570;7.244;2023-01-31T03:27:20;14.47;;;2.40;;
27833;SDS011;15200;50.570;7.244;2023-01-31T03:29:48;13.73;;;3.33;;
27833;SDS011;15200;50.570;7.244;2023-01-31T03:32:34;12.23;;;2.30;;
27833;SDS011;15200;50.570;7.244;2023-01-31T03:35:02;8.80;;;1.90;;
27833;SDS011;15200;50.570;7.244;2023-01-31T03:37:31;14.43;;;2.77;;
27833;SDS011;15200;50.570;7.244;2023-01-31T03:40:07;15.27;;;2.43;;
27833;SDS011;15200;50.570;7.244;2023-01-31T03:42:42;15.15;;;2.80;;
27833;SDS011;15200;50.570;7.244;2023-01-31T03:45:06;14.57;;;3.00;;
27833;SDS011;15200;50.570;7.244;2023-01-31T03:47:35;6.47;;;2.33;;
27833;SDS011;15200;50.570;7.244;2023-01-31T03:50:09;9.48;;;2.20;;
27833;SDS011;15200;50.570;7.244;2023-01-31T03:52:34;16.37;;;2.67;;
27833;SDS011;15200;50.570;7.244;2023-01-31T03:55:07;9.97;;;2.20;;
27833;SDS011;15200;50.570;7.244;2023-01-31T04:00:19;12.82;;;2.87;;
27833;SDS011;15200;50.570;7.244;2023-01-31T04:02:48;8.33;;;2.13;;
27833;SDS011;15200;50.570;7.244;2023-01-31T04:05:17;12.37;;;2.33;;
27833;SDS011;15200;50.570;7.244;2023-01-31T04:07:45;11.17;;;2.80;;
27833;SDS011;15200;50.570;7.244;2023-01-31T04:10:14;8.47;;;2.50;;
27833;SDS011;15200;50.570;7.244;2023-01-31T04:12:41;11.00;;;3.43;;
27833;SDS011;15200;50.570;7.244;2023-01-31T04:15:09;9.43;;;2.93;;
27833;SDS011;15200;50.570;7.244;2023-01-31T04:17:36;11.77;;;3.03;;
27833;SDS011;15200;50.570;7.244;2023-01-31T04:20:04;13.57;;;2.77;;
27833;SDS011;15200;50.570;7.244;2023-01-31T04:22:31;13.37;;;2.83;;
27833;SDS011;15200;50.570;7.244;2023-01-31T04:24:59;9.00;;;2.87;;
27833;SDS011;15200;50.570;7.244;2023-01-31T04:27:26;10.00;;;2.50;;
27833;SDS011;15200;50.570;7.244;2023-01-31T04:29:53;14.80;;;2.67;;
27833;SDS011;15200;50.570;7.244;2023-01-31T04:32:21;13.53;;;2.93;;
27833;SDS011;15200;50.570;7.244;2023-01-31T04:34:48;9.80;;;2.90;;
27833;SDS011;15200;50.570;7.244;2023-01-31T04:37:15;12.57;;;2.93;;
27833;SDS011;15200;50.570;7.244;2023-01-31T04:39:43;11.53;;;2.40;;
27833;SDS011;15200;50.570;7.244;2023-01-31T04:42:10;13.53;;;3.37;;
27833;SDS011;15200;50.570;7.244;2023-01-31T04:44:37;12.87;;;4.10;;
27833;SDS011;15200;50.570;7.244;2023-01-31T04:47:05;7.87;;;2.50;;
27833;SDS011;15200;50.570;7.244;2023-01-31T04:49:32;13.20;;;2.83;;
27833;SDS011;15200;50.570;7.244;2023-01-31T04:54:46;10.37;;;2.83;;
27833;SDS011;15200;50.570;7.244;2023-01-31T04:57:13;11.67;;;2.47;;
27833;SDS011;15200;50.570;7.244;2023-01-31T04:59:41;13.00;;;2.77;;
27833;SDS011;15200;50.570;7.244;2023-01-31T05:02:08;12.17;;;3.13;;
27833;SDS011;15200;50.570;7.244;2023-01-31T05:04:35;10.37;;;2.40;;
27833;SDS011;15200;50.570;7.244;2023-01-31T05:07:02;11.27;;;2.60;;
27833;SDS011;15200;50.570;7.244;2023-01-31T05:09:30;9.03;;;2.40;;
27833;SDS011;15200;50.570;7.244;2023-01-31T05:11:57;10.70;;;2.63;;
27833;SDS011;15200;50.570;7.244;2023-01-31T05:14:24;7.83;;;2.00;;
27833;SDS011;15200;50.570;7.244;2023-01-31T05:16:52;6.30;;;2.10;;
27833;SDS011;15200;50.570;7.244;2023-01-31T05:19:20;7.10;;;2.37;;
27833;SDS011;15200;50.570;7.244;2023-01-31T05:21:47;9.50;;;2.73;;
27833;SDS011;15200;50.570;7.244;2023-01-31T05:24:21;9.57;;;2.60;;
27833;SDS011;15200;50.570;7.244;2023-01-31T05:26:48;9.23;;;2.60;;
27833;SDS011;15200;50.570;7.244;2023-01-31T05:29:17;9.00;;;2.53;;
27833;SDS011;15200;50.570;7.244;2023-01-31T05:31:45;8.80;;;2.70;;
27833;SDS011;15200;50.570;7.244;2023-01-31T05:34:12;13.83;;;3.20;;
27833;SDS011;15200;50.570;7.244;2023-01-31T05:36:41;6.10;;;2.53;;
27833;SDS011;15200;50.570;7.244;2023-01-31T05:39:09;8.47;;;2.37;;
27833;SDS011;15200;50.570;7.244;2023-01-31T05:41:36;6.77;;;2.50;;
27833;SDS011;15200;50.570;7.244;2023-01-31T05:44:03;12.33;;;4.13;;
27833;SDS011;15200;50.570;7.244;2023-01-31T05:46:31;12.67;;;2.63;;
27833;SDS011;15200;50.570;7.244;2023-01-31T05:48:58;9.13;;;2.60;;
27833;SDS011;15200;50.570;7.244;2023-01-31T05:51:25;6.67;;;2.20;;
27833;SDS011;15200;50.570;7.244;2023-01-31T05:53:52;8.30;;;2.70;;
27833;SDS011;15200;50.570;7.244;2023-01-31T05:56:20;7.60;;;2.30;;
27833;SDS011;15200;50.570;7.244;2023-01-31T05:58:48;10.53;;;2.60;;
27833;SDS011;15200;50.570;7.244;2023-01-31T06:01:21;10.53;;;3.17;;
27833;SDS011;15200;50.570;7.244;2023-01-31T06:03:45;13.23;;;2.63;;
27833;SDS011;15200;50.570;7.244;2023-01-31T06:06:12;8.47;;;2.77;;
27833;SDS011;15200;50.570;7.244;2023-01-31T06:08:40;12.47;;;3.37;;
27833;SDS011;15200;50.570;7.244;2023-01-31T06:11:08;15.17;;;2.50;;
27833;SDS011;15200;50.570;7.244;2023-01-31T06:13:38;7.23;;;2.77;;
27833;SDS011;15200;50.570;7.244;2023-01-31T06:16:05;12.23;;;3.17;;
27833;SDS011;15200;50.570;7.244;2023-01-31T06:18:33;8.07;;;2.30;;
27833;SDS011;15200;50.570;7.244;2023-01-31T06:21:00;14.93;;;3.03;;
27833;SDS011;15200;50.570;7.244;2023-01-31T06:23:27;9.17;;;2.67;;
27833;SDS011;15200;50.570;7.244;2023-01-31T06:28:41;13.97;;;3.27;;
27833;SDS011;15200;50.570;7.244;2023-01-31T06:31:09;15.07;;;3.63;;
27833;SDS011;15200;50.570;7.244;2023-01-31T06:33:37;11.17;;;4.03;;
27833;SDS011;15200;50.570;7.244;2023-01-31T06:36:04;9.00;;;3.33;;
27833;SDS011;15200;50.570;7.244;2023-01-31T06:38:32;11.63;;;4.20;;
27833;SDS011;15200;50.570;7.244;2023-01-31T06:40:59;7.60;;;3.17;;
27833;SDS011;15200;50.570;7.244;2023-01-31T06:43:26;11.00;;;3.50;;
27833;SDS011;15200;50.570;7.244;2023-01-31T06:45:54;14.03;;;3.87;;
27833;SDS011;15200;50.570;7.244;2023-01-31T06:48:21;12.97;;;4.37;;
27833;SDS011;15200;50.570;7.244;2023-01-31T06:50:48;10.87;;;4.10;;
27833;SDS011;15200;50.570;7.244;2023-01-31T06:53:16;17.73;;;4.20;;
27833;SDS011;15200;50.570;7.244;2023-01-31T06:55:43;14.80;;;4.37;;
27833;SDS011;15200;50.570;7.244;2023-01-31T06:58:10;16.00;;;4.67;;
27833;SDS011;15200;50.570;7.244;2023-01-31T07:00:38;9.83;;;3.97;;
27833;SDS011;15200;50.570;7.244;2023-01-31T07:03:05;14.40;;;4.10;;
27833;SDS011;15200;50.570;7.244;2023-01-31T07:05:32;15.30;;;4.00;;
27833;SDS011;15200;50.570;7.244;2023-01-31T07:07:59;11.73;;;4.37;;
27833;SDS011;15200;50.570;7.244;2023-01-31T07:10:27;11.07;;;3.60;;
27833;SDS011;15200;50.570;7.244;2023-01-31T07:12:54;10.13;;;3.50;;
27833;SDS011;15200;50.570;7.244;2023-01-31T07:15:21;12.80;;;4.83;;
27833;SDS011;15200;50.570;7.244;2023-01-31T07:17:49;13.37;;;4.87;;
27833;SDS011;15200;50.570;7.244;2023-01-31T07:20:16;9.37;;;4.83;;
27833;SDS011;15200;50.570;7.244;2023-01-31T07:22:44;11.43;;;5.27;;
27833;SDS011;15200;50.570;7.244;2023-01-31T07:25:11;11.73;;;4.93;;
27833;SDS011;15200;50.570;7.244;2023-01-31T07:27:38;13.53;;;4.70;;
27833;SDS011;15200;50.570;7.244;2023-01-31T07:30:06;12.93;;;4.17;;
27833;SDS011;15200;50.570;7.244;2023-01-31T07:32:33;15.90;;;4.50;;
27833;SDS011;15200;50.570;7.244;2023-01-31T07:35:00;13.90;;;4.20;;
27833;SDS011;15200;50.570;7.244;2023-01-31T07:37:28;12.33;;;3.90;;
27833;SDS011;15200;50.570;7.244;2023-01-31T07:39:55;13.87;;;4.37;;
27833;SDS011;15200;50.570;7.244;2023-01-31T07:42:22;9.90;;;4.10;;
27833;SDS011;15200;50.570;7.244;2023-01-31T07:44:50;10.13;;;4.30;;
27833;SDS011;15200;50.570;7.244;2023-01-31T07:47:17;15.07;;;4.20;;
27833;SDS011;15200;50.570;7.244;2023-01-31T07:49:44;17.83;;;5.00;;
27833;SDS011;15200;50.570;7.244;2023-01-31T07:52:12;12.10;;;5.20;;
27833;SDS011;15200;50.570;7.244;2023-01-31T07:54:39;15.60;;;5.07;;
27833;SDS011;15200;50.570;7.244;2023-01-31T07:57:06;15.20;;;5.97;;
27833;SDS011;15200;50.570;7.244;2023-01-31T07:59:37;15.60;;;5.20;;
27833;SDS011;15200;50.570;7.244;2023-01-31T08:02:05;13.97;;;5.23;;
27833;SDS011;15200;50.570;7.244;2023-01-31T08:04:51;12.67;;;5.13;;
27833;SDS011;15200;50.570;7.244;2023-01-31T08:07:18;11.53;;;4.93;;
27833;SDS011;15200;50.570;7.244;2023-01-31T08:09:45;19.23;;;4.80;;
27833;SDS011;15200;50.570;7.244;2023-01-31T08:12:14;15.23;;;5.00;;
27833;SDS011;15200;50.570;7.244;2023-01-31T08:17:28;19.10;;;5.00;;
27833;SDS011;15200;50.570;7.244;2023-01-31T08:19:57;15.07;;;5.27;;
27833;SDS011;15200;50.570;7.244;2023-01-31T08:22:25;18.77;;;5.20;;
27833;SDS011;15200;50.570;7.244;2023-01-31T08:24:52;8.63;;;4.53;;
27833;SDS011;15200;50.570;7.244;2023-01-31T08:27:19;17.07;;;5.83;;
27833;SDS011;15200;50.570;7.244;2023-01-31T08:29:46;10.20;;;5.00;;
27833;SDS011;15200;50.570;7.244;2023-01-31T08:32:14;14.80;;;6.07;;
27833;SDS011;15200;50.570;7.244;2023-01-31T08:34:41;18.10;;;6.03;;
27833;SDS011;15200;50.570;7.244;2023-01-31T08:37:08;18.60;;;6.20;;
27833;SDS011;15200;50.570;7.244;2023-01-31T08:39:36;21.10;;;6.13;;
27833;SDS011;15200;50.570;7.244;2023-01-31T08:42:03;18.03;;;6.20;;
27833;SDS011;15200;50.570;7.244;2023-01-31T08:44:30;13.50;;;6.17;;
27833;SDS011;15200;50.570;7.244;2023-01-31T08:46:58;13.37;;;5.80;;
27833;SDS011;15200;50.570;7.244;2023-01-31T08:49:26;17.97;;;7.70;;
27833;SDS011;15200;50.570;7.244;2023-01-31T08:51:54;16.80;;;5.63;;
27833;SDS011;15200;50.570;7.244;2023-01-31T08:54:21;13.23;;;5.40;;
27833;SDS011;15200;50.570;7.244;2023-01-31T08:56:49;14.67;;;5.23;;
27833;SDS011;15200;50.570;7.244;2023-01-31T08:59:16;14.43;;;5.10;;
27833;SDS011;15200;50.570;7.244;2023-01-31T09:01:43;18.03;;;5.67;;
27833;SDS011;15200;50.570;7.244;2023-01-31T09:06:58;15.53;;;6.10;;
27833;SDS011;15200;50.570;7.244;2023-01-31T09:09:26;19.40;;;6.60;;
27833;SDS011;15200;50.570;7.244;2023-01-31T09:14:39;12.20;;;5.53;;
27833;SDS011;15200;50.570;7.244;2023-01-31T09:17:07;17.37;;;6.33;;
27833;SDS011;15200;50.570;7.244;2023-01-31T09:19:36;12.00;;;5.50;;
27833;SDS011;15200;50.570;7.244;2023-01-31T09:22:03;15.47;;;5.67;;
27833;SDS011;15200;50.570;7.244;2023-01-31T09:24:31;18.20;;;6.30;;
27833;SDS011;15200;50.570;7.244;2023-01-31T09:26:58;16.77;;;6.33;;
27833;SDS011;15200;50.570;7.244;2023-01-31T09:29:25;15.77;;;6.10;;
27833;SDS011;15200;50.570;7.244;2023-01-31T09:31:54;15.43;;;5.13;;
27833;SDS011;15200;50.570;7.244;2023-01-31T09:34:21;16.10;;;5.50;;
27833;SDS011;15200;50.570;7.244;2023-01-31T09:36:48;12.85;;;5.25;;
27833;SDS011;15200;50.570;7.244;2023-01-31T09:39:16;16.03;;;5.07;;
27833;SDS011;15200;50.570;7.244;2023-01-31T09:41:46;11.73;;;4.77;;
27833;SDS011;15200;50.570;7.244;2023-01-31T09:44:21;16.73;;;4.53;;
27833;SDS011;15200;50.570;7.244;2023-01-31T09:49:43;15.53;;;4.43;;
27833;SDS011;15200;50.570;7.244;2023-01-31T09:54:49;12.00;;;3.73;;
27833;SDS011;15200;50.570;7.244;2023-01-31T09:59:49;9.07;;;3.23;;
27833;SDS011;15200;50.570;7.244;2023-01-31T10:05:03;9.93;;;3.20;;
27833;SDS011;15200;50.570;7.244;2023-01-31T10:07:36;11.80;;;2.93;;
27833;SDS011;15200;50.570;7.244;2023-01-31T10:10:10;10.73;;;3.43;;
27833;SDS011;15200;50.570;7.244;2023-01-31T10:12:32;15.87;;;3.07;;
27833;SDS011;15200;50.570;7.244;2023-01-31T10:15:05;13.43;;;4.10;;
27833;SDS011;15200;50.570;7.244;2023-01-31T10:17:33;12.53;;;3.00;;
27833;SDS011;15200;50.570;7.244;2023-01-31T10:20:07;14.27;;;3.73;;
27833;SDS011;15200;50.570;7.244;2023-01-31T10:22:36;11.83;;;2.90;;
27833;SDS011;15200;50.570;7.244;2023-01-31T10:25:15;11.77;;;2.80;;
27833;SDS011;15200;50.570;7.244;2023-01-31T10:30:13;10.72;;;3.40;;
27833;SDS011;15200;50.570;7.244;2023-01-31T10:32:40;11.73;;;2.98;;
27833;SDS011;15200;50.570;7.244;2023-01-31T10:35:18;7.57;;;2.60;;
27833;SDS011;15200;50.570;7.244;2023-01-31T10:37:46;12.45;;;2.52;;
27833;SDS011;15200;50.570;7.244;2023-01-31T10:40:18;10.90;;;3.17;;
27833;SDS011;15200;50.570;7.244;2023-01-31T10:42:48;11.73;;;3.07;;
27833;SDS011;15200;50.570;7.244;2023-01-31T10:45:15;11.78;;;2.90;;
27833;SDS011;15200;50.570;7.244;2023-01-31T10:50:33;9.13;;;3.73;;
27833;SDS011;15200;50.570;7.244;2023-01-31T10:53:08;8.93;;;2.98;;
27833;SDS011;15200;50.570;7.244;2023-01-31T10:58:10;12.30;;;2.87;;
27833;SDS011;15200;50.570;7.244;2023-01-31T11:00:37;9.43;;;3.10;;
27833;SDS011;15200;50.570;7.244;2023-01-31T11:03:04;10.25;;;2.80;;
27833;SDS011;15200;50.570;7.244;2023-01-31T11:05:31;13.65;;;3.00;;
27833;SDS011;15200;50.570;7.244;2023-01-31T11:08:20;16.17;;;4.75;;
27833;SDS011;15200;50.570;7.244;2023-01-31T11:10:30;13.20;;;2.90;;
27833;SDS011;15200;50.570;7.244;2023-01-31T11:12:58;12.73;;;3.15;;
27833;SDS011;15200;50.570;7.244;2023-01-31T11:15:39;10.63;;;3.00;;
27833;SDS011;15200;50.570;7.244;2023-01-31T11:18:14;7.90;;;3.20;;
27833;SDS011;15200;50.570;7.244;2023-01-31T11:20:43;8.40;;;2.60;;
27833;SDS011;15200;50.570;7.244;2023-01-31T11:23:07;10.15;;;2.85;;
27833;SDS011;15200;50.570;7.244;2023-01-31T11:25:36;7.47;;;2.83;;
27833;SDS011;15200;50.570;7.244;2023-01-31T11:28:04;8.48;;;2.90;;
27833;SDS011;15200;50.570;7.244;2023-01-31T11:30:35;11.10;;;2.77;;
27833;SDS011;15200;50.570;7.244;2023-01-31T11:33:04;12.03;;;2.55;;
27833;SDS011;15200;50.570;7.244;2023-01-31T11:35:32;7.90;;;2.55;;
27833;SDS011;15200;50.570;7.244;2023-01-31T11:38:01;15.48;;;2.98;;
27833;SDS011;15200;50.570;7.244;2023-01-31T11:40:33;9.48;;;2.92;;
27833;SDS011;15200;50.570;7.244;2023-01-31T11:45:45;10.70;;;2.58;;
27833;SDS011;15200;50.570;7.244;2023-01-31T11:50:45;7.05;;;2.65;;
27833;SDS011;15200;50.570;7.244;2023-01-31T11:58:33;7.78;;;2.65;;
27833;SDS011;15200;50.570;7.244;2023-01-31T12:01:01;12.93;;;3.47;;
27833;SDS011;15200;50.570;7.244;2023-01-31T12:03:29;10.35;;;2.52;;
27833;SDS011;15200;50.570;7.244;2023-01-31T12:06:01;6.72;;;2.92;;
27833;SDS011;15200;50.570;7.244;2023-01-31T12:08:35;15.38;;;3.42;;
27833;SDS011;15200;50.570;7.244;2023-01-31T12:11:04;8.98;;;2.40;;
27833;SDS011;15200;50.570;7.244;2023-01-31T12:13:42;15.38;;;3.02;;
27833;SDS011;15200;50.570;7.244;2023-01-31T12:16:01;9.33;;;2.70;;
27833;SDS011;15200;50.570;7.244;2023-01-31T12:22:01;8.23;;;3.37;;
27833;SDS011;15200;50.570;7.244;2023-01-31T12:23:55;9.95;;;2.47;;
27833;SDS011;15200;50.570;7.244;2023-01-31T12:29:21;12.28;;;3.02;;
27833;SDS011;15200;50.570;7.244;2023-01-31T12:31:51;5.92;;;2.20;;
27833;SDS011;15200;50.570;7.244;2023-01-31T12:34:33;10.98;;;2.62;;
27833;SDS011;15200;50.570;7.244;2023-01-31T12:37:05;11.97;;;3.40;;
27833;SDS011;15200;50.570;7.244;2023-01-31T12:42:23;4.95;;;2.12;;
27833;SDS011;15200;50.570;7.244;2023-01-31T12:45:21;9.95;;;2.98;;
27833;SDS011;15200;50.570;7.244;2023-01-31T12:47:47;8.38;;;2.72;;
27833;SDS011;15200;50.570;7.244;2023-01-31T12:50:16;8.08;;;2.25;;
27833;SDS011;15200;50.570;7.244;2023-01-31T12:58:03;8.75;;;2.83;;
27833;SDS011;15200;50.570;7.244;2023-01-31T13:03:16;8.23;;;2.40;;
27833;SDS011;15200;50.570;7.244;2023-01-31T13:08:20;9.70;;;2.45;;
27833;SDS011;15200;50.570;7.244;2023-01-31T13:10:57;12.73;;;2.58;;
27833;SDS011;15200;50.570;7.244;2023-01-31T13:13:37;8.93;;;2.15;;
27833;SDS011;15200;50.570;7.244;2023-01-31T13:15:57;11.93;;;2.72;;
27833;SDS011;15200;50.570;7.244;2023-01-31T13:18:23;5.85;;;1.90;;
27833;SDS011;15200;50.570;7.244;2023-01-31T13:20:55;5.87;;;2.22;;
27833;SDS011;15200;50.570;7.244;2023-01-31T13:23:25;4.42;;;1.80;;
27833;SDS011;15200;50.570;7.244;2023-01-31T13:28:42;6.75;;;2.22;;
27833;SDS011;15200;50.570;7.244;2023-01-31T13:31:12;5.20;;;2.02;;
27833;SDS011;15200;50.570;7.244;2023-01-31T13:33:45;5.75;;;1.80;;
27833;SDS011;15200;50.570;7.244;2023-01-31T13:36:15;3.83;;;1.70;;
27833;SDS011;15200;50.570;7.244;2023-01-31T13:38:42;4.37;;;1.70;;
27833;SDS011;15200;50.570;7.244;2023-01-31T13:41:12;2.52;;;1.65;;
27833;SDS011;15200;50.570;7.244;2023-01-31T13:43:38;6.95;;;2.05;;
27833;SDS011;15200;50.570;7.244;2023-01-31T13:46:06;6.22;;;2.47;;
27833;SDS011;15200;50.570;7.244;2023-01-31T13:48:41;2.90;;;1.80;;
27833;SDS011;15200;50.570;7.244;2023-01-31T13:51:14;4.20;;;1.90;;
27833;SDS011;15200;50.570;7.244;2023-01-31T13:53:53;5.28;;;2.10;;
27833;SDS011;15200;50.570;7.244;2023-01-31T13:56:22;5.30;;;1.70;;
27833;SDS011;15200;50.570;7.244;2023-01-31T13:58:47;5.17;;;1.90;;
27833;SDS011;15200;50.570;7.244;2023-01-31T14:01:17;3.40;;;1.47;;
27833;SDS011;15200;50.570;7.244;2023-01-31T14:11:50;4.65;;;1.20;;
27833;SDS011;15200;50.570;7.244;2023-01-31T14:17:14;3.42;;;1.30;;
27833;SDS011;15200;50.570;7.244;2023-01-31T14:22:18;2.33;;;1.52;;
27833;SDS011;15200;50.570;7.244;2023-01-31T14:27:26;3.92;;;1.42;;
27833;SDS011;15200;50.570;7.244;2023-01-31T14:32:33;3.98;;;1.62;;
27833;SDS011;15200;50.570;7.244;2023-01-31T14:35:23;3.22;;;1.30;;
27833;SDS011;15200;50.570;7.244;2023-01-31T14:38:05;2.27;;;1.27;;
27833;SDS011;15200;50.570;7.244;2023-01-31T14:40:42;5.90;;;1.30;;
27833;SDS011;15200;50.570;7.244;2023-01-31T14:48:25;2.10;;;1.05;;
27833;SDS011;15200;50.570;7.244;2023-01-31T14:55:58;4.78;;;1.52;;
27833;SDS011;15200;50.570;7.244;2023-01-31T14:58:25;3.35;;;1.40;;
27833;SDS011;15200;50.570;7.244;2023-01-31T15:00:53;3.12;;;1.35;;
27833;SDS011;15200;50.570;7.244;2023-01-31T15:03:33;1.87;;;1.30;;
27833;SDS011;15200;50.570;7.244;2023-01-31T15:06:07;3.60;;;1.70;;
27833;SDS011;15200;50.570;7.244;2023-01-31T15:11:40;2.00;;;1.30;;
27833;SDS011;15200;50.570;7.244;2023-01-31T15:14:22;2.20;;;1.77;;
27833;SDS011;15200;50.570;7.244;2023-01-31T15:16:45;2.25;;;1.67;;
27833;SDS011;15200;50.570;7.244;2023-01-31T15:19:19;4.45;;;2.05;;
27833;SDS011;15200;50.570;7.244;2023-01-31T15:21:52;2.83;;;1.50;;
27833;SDS011;15200;50.570;7.244;2023-01-31T15:26:49;2.52;;;1.60;;
27833;SDS011;15200;50.570;7.244;2023-01-31T15:29:21;1.95;;;1.62;;
27833;SDS011;15200;50.570;7.244;2023-01-31T15:31:47;2.62;;;1.35;;
27833;SDS011;15200;50.570;7.244;2023-01-31T15:34:22;4.60;;;1.60;;
27833;SDS011;15200;50.570;7.244;2023-01-31T15:36:50;3.33;;;1.60;;
27833;SDS011;15200;50.570;7.244;2023-01-31T15:39:29;2.22;;;1.50;;
27833;SDS011;15200;50.570;7.244;2023-01-31T15:41:56;5.20;;;1.42;;
27833;SDS011;15200;50.570;7.244;2023-01-31T15:44:21;4.10;;;1.73;;
27833;SDS011;15200;50.570;7.244;2023-01-31T15:46:50;2.77;;;1.37;;
27833;SDS011;15200;50.570;7.244;2023-01-31T15:49:22;8.53;;;1.65;;
27833;SDS011;15200;50.570;7.244;2023-01-31T15:54:36;2.62;;;1.32;;
27833;SDS011;15200;50.570;7.244;2023-01-31T15:57:04;4.15;;;1.45;;
27833;SDS011;15200;50.570;7.244;2023-01-31T15:59:32;1.52;;;1.25;;
27833;SDS011;15200;50.570;7.244;2023-01-31T16:02:00;3.25;;;1.40;;
27833;SDS011;15200;50.570;7.244;2023-01-31T16:04:28;2.10;;;1.30;;
27833;SDS011;15200;50.570;7.244;2023-01-31T16:06:55;4.85;;;1.62;;
27833;SDS011;15200;50.570;7.244;2023-01-31T16:09:28;1.10;;;1.00;;
27833;SDS011;15200;50.570;7.244;2023-01-31T16:11:55;2.15;;;1.30;;
27833;SDS011;15200;50.570;7.244;2023-01-31T16:14:23;2.00;;;1.22;;
27833;SDS011;15200;50.570;7.244;2023-01-31T16:16:52;1.10;;;1.00;;
27833;SDS011;15200;50.570;7.244;2023-01-31T16:19:24;1.42;;;1.15;;
27833;SDS011;15200;50.570;7.244;2023-01-31T16:21:51;1.25;;;1.15;;
27833;SDS011;15200;50.570;7.244;2023-01-31T16:24:20;4.03;;;1.30;;
27833;SDS011;15200;50.570;7.244;2023-01-31T16:26:53;2.45;;;1.25;;
27833;SDS011;15200;50.570;7.244;2023-01-31T16:29:20;1.27;;;1.00;;
27833;SDS011;15200;50.570;7.244;2023-01-31T16:31:49;1.17;;;0.80;;
27833;SDS011;15200;50.570;7.244;2023-01-31T16:34:29;2.02;;;0.93;;
27833;SDS011;15200;50.570;7.244;2023-01-31T16:37:01;1.00;;;0.90;;
27833;SDS011;15200;50.570;7.244;2023-01-31T16:41:58;1.57;;;1.30;;
27833;SDS011;15200;50.570;7.244;2023-01-31T16:44:27;1.77;;;1.00;;
27833;SDS011;15200;50.570;7.244;2023-01-31T16:46:55;1.07;;;0.90;;
27833;SDS011;15200;50.570;7.244;2023-01-31T16:49:24;1.92;;;1.40;;
27833;SDS011;15200;50.570;7.244;2023-01-31T16:51:55;0.90;;;0.85;;
27833;SDS011;15200;50.570;7.244;2023-01-31T16:54:32;0.98;;;0.85;;
27833;SDS011;15200;50.570;7.244;2023-01-31T17:04:39;2.37;;;1.00;;
27833;SDS011;15200;50.570;7.244;2023-01-31T17:07:11;4.47;;;1.40;;
27833;SDS011;15200;50.570;7.244;2023-01-31T17:09:35;1.90;;;1.22;;